Time;durP1;ratioP1;P1;durP2;ratioP2;P2;SDS_P1;SDS_P2;PMS_P1;PMS_P2;Temp;Humidity;BMP_temperature;BMP_pressure;BME280_temperature;BME280_humidity;BME280_pressure;Samples;Min_cycle;Max_cycle;Signal;HPM_P1;HPM_P2
2023/06/16 00:01:31;;;;;;;7.7;5.8;;;;;;;14.06;80.0459;937.9305;;;;
2023/06/16 00:03:53;;;;;;;7.8;6;;;;;;;13.96;80.08496;937.9537;;;;
2023/06/16 00:06:19;;;;;;;7.2;5.7;;;;;;;13.89;80.65918;937.9741;;;;
2023/06/16 00:08:44;;;;;;;6.9;5.9;;;;;;;13.87;80.78027;938.031;;;;
2023/06/16 00:11:10;;;;;;;9.1;6.2;;;;;;;13.85;81.08887;938.0342;;;;
2023/06/16 00:13:35;;;;;;;6.7;6;;;;;;;13.65;81.40918;938.0963;;;;
2023/06/16 00:16:00;;;;;;;7.8;5.9;;;;;;;13.7;81.15137;938.0648;;;;
2023/06/16 00:18:27;;;;;;;7.3;5.6;;;;;;;13.72;81.33984;938.1016;;;;
2023/06/16 00:20:54;;;;;;;6.7;6.1;;;;;;;13.6;82.26074;938.1625;;;;
2023/06/16 00:23:18;;;;;;;7.1;6.2;;;;;;;13.49;82.86133;938.1467;;;;
2023/06/16 00:25:43;;;;;;;6.8;6;;;;;;;13.48;82.52441;938.178;;;;
2023/06/16 00:28:08;;;;;;;7;5.8;;;;;;;13.44;83.10449;938.1572;;;;
2023/06/16 00:30:33;;;;;;;7.1;5.7;;;;;;;13.48;82.60547;938.2011;;;;
2023/06/16 00:32:59;;;;;;;8.8;5.9;;;;;;;13.43;82.52539;938.1588;;;;
2023/06/16 00:35:24;;;;;;;8.5;6.9;;;;;;;13.14;84.1709;938.2191;;;;
2023/06/16 00:37:52;;;;;;;7.1;6.2;;;;;;;13.26;84.28711;938.23;;;;
2023/06/16 00:40:18;;;;;;;8.6;6.4;;;;;;;13.37;83.81445;938.293;;;;
2023/06/16 00:42:46;;;;;;;8.3;6.3;;;;;;;13.38;83.3125;938.2578;;;;
2023/06/16 00:45:11;;;;;;;6.6;5.9;;;;;;;13.14;84.18262;938.2567;;;;
2023/06/16 00:47:38;;;;;;;7;6.3;;;;;;;13.25;83.99805;938.2508;;;;
2023/06/16 00:50:03;;;;;;;7.3;6.5;;;;;;;13.13;82.99902;938.2678;;;;
2023/06/16 00:52:28;;;;;;;8.4;5.9;;;;;;;13.15;83.19824;938.1942;;;;
2023/06/16 00:54:54;;;;;;;7.7;5.9;;;;;;;13.35;82.44336;938.2442;;;;
2023/06/16 00:57:19;;;;;;;6.7;5.8;;;;;;;13.45;81.71484;938.2372;;;;
2023/06/16 00:59:46;;;;;;;6.3;5.7;;;;;;;13.5;81.77148;938.2188;;;;
2023/06/16 01:02:11;;;;;;;7.2;5.9;;;;;;;13.49;81.6416;938.2355;;;;
2023/06/16 01:04:37;;;;;;;6.3;5.7;;;;;;;13.46;81.5791;938.1836;;;;
2023/06/16 01:07:03;;;;;;;7.7;5.8;;;;;;;13.49;81.74512;938.2019;;;;
2023/06/16 01:09:28;;;;;;;7.6;5.5;;;;;;;13.43;81.41309;938.1484;;;;
2023/06/16 01:11:54;;;;;;;7.6;5.7;;;;;;;13.46;81.1416;938.178;;;;
2023/06/16 01:14:19;;;;;;;7.9;5.5;;;;;;;13.48;81.44434;938.1475;;;;
2023/06/16 01:16:44;;;;;;;8.2;5.6;;;;;;;13.59;81.34961;938.1945;;;;
2023/06/16 01:19:13;;;;;;;6;5.4;;;;;;;13.38;81.02344;938.1163;;;;
2023/06/16 01:21:37;;;;;;;6.2;5.4;;;;;;;13.39;80.91211;938.1618;;;;
2023/06/16 01:24:03;;;;;;;6.7;5.6;;;;;;;13.42;81.11035;938.1373;;;;
2023/06/16 01:26:31;;;;;;;9.2;6;;;;;;;13.35;81.42188;938.1811;;;;
2023/06/16 01:28:56;;;;;;;7.3;5.9;;;;;;;13.29;81.60352;938.0916;;;;
2023/06/16 01:31:22;;;;;;;6.3;5.7;;;;;;;13.16;82.12012;938.0663;;;;
2023/06/16 01:33:47;;;;;;;6.1;5.4;;;;;;;13.23;81.74316;938.0084;;;;
2023/06/16 01:36:12;;;;;;;7.3;5.8;;;;;;;13.06;82.43457;938.0712;;;;
2023/06/16 01:38:39;;;;;;;12.4;6.4;;;;;;;13.07;82.36719;938.0895;;;;
2023/06/16 01:41:05;;;;;;;6.6;5.6;;;;;;;13.17;81.75586;938.0711;;;;
2023/06/16 01:43:33;;;;;;;6;5.4;;;;;;;13.26;81.47266;938.0228;;;;
2023/06/16 01:45:58;;;;;;;6.7;6;;;;;;;13.18;81.31934;938.077;;;;
2023/06/16 01:48:27;;;;;;;6.4;5.6;;;;;;;13.05;81.59473;938.0449;;;;
2023/06/16 01:50:55;;;;;;;6.5;5.7;;;;;;;12.79;82.69336;938.0179;;;;
2023/06/16 01:53:20;;;;;;;7;5.4;;;;;;;12.87;82.5918;938.0046;;;;
2023/06/16 01:55:50;;;;;;;6.3;5.5;;;;;;;12.98;82.55664;937.955;;;;
2023/06/16 01:58:15;;;;;;;6.9;6.2;;;;;;;12.97;82.6123;937.9207;;;;
2023/06/16 02:00:40;;;;;;;6.8;5.6;;;;;;;13.01;82.13672;938.0165;;;;
2023/06/16 02:03:10;;;;;;;8.6;5.8;;;;;;;13.05;82.3291;937.9553;;;;
2023/06/16 02:05:35;;;;;;;6.4;5.5;;;;;;;13.23;82.08789;937.9549;;;;
2023/06/16 02:08:00;;;;;;;7.7;6.2;;;;;;;13.38;81.28906;937.9611;;;;
2023/06/16 02:10:25;;;;;;;7.6;6;;;;;;;13.53;81.32813;937.9827;;;;
2023/06/16 02:12:52;;;;;;;8.1;5.8;;;;;;;13.66;80.2832;937.9754;;;;
2023/06/16 02:15:17;;;;;;;6.1;5.3;;;;;;;13.75;79.67773;937.9503;;;;
2023/06/16 02:17:45;;;;;;;9.9;5.5;;;;;;;13.8;80.04199;937.9189;;;;
2023/06/16 02:20:10;;;;;;;8.6;5.6;;;;;;;13.84;80.54688;937.9583;;;;
2023/06/16 02:22:36;;;;;;;7.7;5.8;;;;;;;13.89;80.56641;937.9092;;;;
2023/06/16 02:25:02;;;;;;;6.2;5.3;;;;;;;13.88;80.85254;937.8725;;;;
2023/06/16 02:27:30;;;;;;;6.1;5.1;;;;;;;13.92;81.16992;937.8499;;;;
2023/06/16 02:29:58;;;;;;;7.6;6.2;;;;;;;13.87;80.74609;937.8461;;;;
2023/06/16 02:32:25;;;;;;;8.4;5.6;;;;;;;13.8;80.96387;937.8205;;;;
2023/06/16 02:34:52;;;;;;;6.8;5.9;;;;;;;13.78;80.76563;937.8141;;;;
2023/06/16 02:37:14;;;;;;;7.2;6.1;;;;;;;13.67;81.44531;937.8345;;;;
2023/06/16 02:39:43;;;;;;;7.6;5.8;;;;;;;13.65;80.81934;937.801;;;;
2023/06/16 02:42:10;;;;;;;6;5.3;;;;;;;13.75;81.06934;937.8711;;;;
2023/06/16 02:44:39;;;;;;;7.2;5.9;;;;;;;13.74;81.64258;937.9095;;;;
2023/06/16 02:47:05;;;;;;;8.4;6.2;;;;;;;13.7;81.10547;937.9584;;;;
2023/06/16 02:49:33;;;;;;;6.8;5.8;;;;;;;13.73;80.69727;937.9359;;;;
2023/06/16 02:51:59;;;;;;;9.3;6.2;;;;;;;13.68;80.44824;938.0121;;;;
2023/06/16 02:54:26;;;;;;;7.7;5.4;;;;;;;13.67;80.06543;937.9817;;;;
2023/06/16 02:56:51;;;;;;;7.3;5.3;;;;;;;13.77;80.37207;937.9942;;;;
2023/06/16 02:59:16;;;;;;;9.3;5.7;;;;;;;13.74;79.99805;937.9752;;;;
2023/06/16 03:01:41;;;;;;;8.2;6;;;;;;;13.71;79.5332;937.9816;;;;
2023/06/16 03:04:09;;;;;;;7;5.8;;;;;;;13.77;79.12891;937.9855;;;;
2023/06/16 03:06:34;;;;;;;6.8;5.7;;;;;;;13.68;79.93066;937.952;;;;
2023/06/16 03:08:59;;;;;;;8.2;5.6;;;;;;;13.74;79.95215;937.9847;;;;
2023/06/16 03:11:24;;;;;;;8.2;5.5;;;;;;;13.78;79.68262;937.9326;;;;
2023/06/16 03:13:50;;;;;;;7.3;5.4;;;;;;;13.7;80.0127;937.9865;;;;
2023/06/16 03:16:21;;;;;;;7.8;5.3;;;;;;;13.65;80.13281;938.0002;;;;
2023/06/16 03:18:43;;;;;;;6.3;5.4;;;;;;;13.64;80.64648;938.0203;;;;
2023/06/16 03:21:10;;;;;;;8.4;6.2;;;;;;;13.7;80.75977;937.9504;;;;
2023/06/16 03:23:35;;;;;;;8.6;6;;;;;;;13.74;80.38867;937.948;;;;
2023/06/16 03:26:03;;;;;;;7.6;5.8;;;;;;;13.76;80.08203;938.0447;;;;
2023/06/16 03:28:28;;;;;;;7.5;5.6;;;;;;;13.77;80.08301;938.0638;;;;
2023/06/16 03:30:54;;;;;;;7;6;;;;;;;13.74;80.29688;938.0631;;;;
2023/06/16 03:33:18;;;;;;;7.2;5.4;;;;;;;13.7;80.16211;938.0681;;;;
2023/06/16 03:35:44;;;;;;;6.6;5.4;;;;;;;13.75;79.86133;938.0839;;;;
2023/06/16 03:38:13;;;;;;;7;5.3;;;;;;;13.93;79.3291;938.0468;;;;
2023/06/16 03:40:39;;;;;;;7.8;5.5;;;;;;;13.97;79.39648;938.0066;;;;
2023/06/16 03:43:07;;;;;;;6;5.4;;;;;;;14.02;78.7373;938.0916;;;;
2023/06/16 03:45:32;;;;;;;7;5.5;;;;;;;14.08;78.54102;938.0897;;;;
2023/06/16 03:48:02;;;;;;;6.8;5.4;;;;;;;14.08;79.03418;938.0817;;;;
2023/06/16 03:50:31;;;;;;;6.5;5.4;;;;;;;14.13;79.0332;938.1103;;;;
2023/06/16 03:52:56;;;;;;;6.4;5.7;;;;;;;14.17;79.99707;938.0861;;;;
2023/06/16 03:55:28;;;;;;;5.8;5.2;;;;;;;14.24;79.97363;938.1373;;;;
2023/06/16 03:57:53;;;;;;;6.1;5.5;;;;;;;14.31;79.56055;938.0937;;;;
2023/06/16 04:00:19;;;;;;;7.1;5.6;;;;;;;14.34;79.53125;937.9894;;;;
2023/06/16 04:02:48;;;;;;;6.4;5.1;;;;;;;14.44;79.37695;938.1425;;;;
2023/06/16 04:05:16;;;;;;;6.4;5.7;;;;;;;14.46;78.83887;938.1736;;;;
2023/06/16 04:07:47;;;;;;;6.4;5.3;;;;;;;14.47;78.79395;938.2328;;;;
2023/06/16 04:10:21;;;;;;;7.8;5.7;;;;;;;14.49;80.13574;938.2415;;;;
2023/06/16 04:12:46;;;;;;;7.3;5.7;;;;;;;14.51;79.78125;938.2326;;;;
2023/06/16 04:15:12;;;;;;;8.4;5.6;;;;;;;14.57;78.89453;938.245;;;;
2023/06/16 04:17:43;;;;;;;9;5.5;;;;;;;14.63;79.74707;938.2963;;;;
2023/06/16 04:20:17;;;;;;;8.5;5.8;;;;;;;14.7;78.37695;938.3383;;;;
2023/06/16 04:22:43;;;;;;;8.7;6;;;;;;;14.6;78.38184;938.3218;;;;
2023/06/16 04:25:22;;;;;;;8.6;5.9;;;;;;;14.57;78.75781;938.3099;;;;
2023/06/16 04:27:51;;;;;;;7.3;6;;;;;;;14.62;78.58105;938.2723;;;;
2023/06/16 04:30:20;;;;;;;7.2;5.5;;;;;;;14.73;78.2207;938.2539;;;;
2023/06/16 04:32:44;;;;;;;7.5;5.5;;;;;;;14.74;78.46289;938.3084;;;;
2023/06/16 04:35:07;;;;;;;7;5.5;;;;;;;14.76;79.13574;938.3403;;;;
2023/06/16 04:37:36;;;;;;;9.6;6;;;;;;;14.77;79.62207;938.3265;;;;
2023/06/16 04:40:05;;;;;;;6.1;5.5;;;;;;;14.85;79.00391;938.3376;;;;
2023/06/16 04:42:30;;;;;;;7.5;5.9;;;;;;;14.9;79.54297;938.35;;;;
2023/06/16 04:44:59;;;;;;;7;5.9;;;;;;;14.95;78.27051;938.3153;;;;
2023/06/16 04:47:24;;;;;;;8;5.6;;;;;;;14.98;79.33887;938.3166;;;;
2023/06/16 04:49:51;;;;;;;9;6.1;;;;;;;15.02;78.41016;938.2405;;;;
2023/06/16 04:52:16;;;;;;;9.8;5.7;;;;;;;14.96;77.82422;938.3111;;;;
2023/06/16 04:54:45;;;;;;;6.1;5.4;;;;;;;15.04;77.47949;938.343;;;;
2023/06/16 04:57:10;;;;;;;7;5.2;;;;;;;15.08;77.66016;938.3265;;;;
2023/06/16 04:59:36;;;;;;;7.7;5.6;;;;;;;15.09;77.82227;938.3514;;;;
2023/06/16 05:02:01;;;;;;;6.6;5;;;;;;;15.11;77.50391;938.3223;;;;
2023/06/16 05:04:32;;;;;;;5.5;4.8;;;;;;;15.2;77.24121;938.3433;;;;
2023/06/16 05:07:00;;;;;;;7.6;5.6;;;;;;;15.35;76.86426;938.3431;;;;
2023/06/16 05:09:25;;;;;;;7;5.7;;;;;;;15.47;77.67188;938.3439;;;;
2023/06/16 05:11:55;;;;;;;6.5;5.4;;;;;;;15.53;77.4502;938.3674;;;;
2023/06/16 05:14:20;;;;;;;7.6;5.6;;;;;;;15.58;76.52441;938.3508;;;;
2023/06/16 05:16:50;;;;;;;7.4;5.7;;;;;;;15.56;77.15625;938.3799;;;;
2023/06/16 05:19:19;;;;;;;8;5.9;;;;;;;15.52;77.17285;938.3081;;;;
2023/06/16 05:21:46;;;;;;;6.5;5.9;;;;;;;15.52;77.79492;938.3419;;;;
2023/06/16 05:24:14;;;;;;;6.9;5.9;;;;;;;15.52;77.61035;938.313;;;;
2023/06/16 05:26:39;;;;;;;6.8;5.7;;;;;;;15.64;77.12305;938.2674;;;;
2023/06/16 05:29:04;;;;;;;7.6;5.8;;;;;;;15.58;78.00293;938.2754;;;;
2023/06/16 05:31:31;;;;;;;7.6;5.9;;;;;;;15.63;77.6416;938.2555;;;;
2023/06/16 05:33:56;;;;;;;6.4;5.7;;;;;;;15.8;77.32617;938.2874;;;;
2023/06/16 05:36:24;;;;;;;6.5;5.6;;;;;;;15.92;75.14941;938.2367;;;;
2023/06/16 05:38:48;;;;;;;7.2;5.3;;;;;;;16.05;75.18555;938.2579;;;;
2023/06/16 05:41:15;;;;;;;7.1;5;;;;;;;16.15;76.54297;938.2463;;;;
2023/06/16 05:43:40;;;;;;;6.3;5;;;;;;;16.31;73.92188;938.2317;;;;
2023/06/16 05:46:06;;;;;;;7.4;5.3;;;;;;;16.46;73.26465;938.1956;;;;
2023/06/16 05:48:31;;;;;;;13.2;5.4;;;;;;;16.61;72.82422;938.27;;;;
2023/06/16 05:53:22;;;;;;;9;5.6;;;;;;;16.76;71.82031;938.3134;;;;
2023/06/16 05:55:47;;;;;;;7.5;5.5;;;;;;;16.7;72.49316;938.233;;;;
2023/06/16 05:58:13;;;;;;;7.2;5.4;;;;;;;16.94;74.12109;938.3014;;;;
2023/06/16 06:00:38;;;;;;;6.3;5.7;;;;;;;17.18;72.67676;938.2199;;;;
2023/06/16 06:03:07;;;;;;;6.9;5.5;;;;;;;17.37;71.74414;938.2832;;;;
2023/06/16 06:05:36;;;;;;;8.2;5.3;;;;;;;17.6;70.41406;938.3222;;;;
2023/06/16 06:08:01;;;;;;;6.4;5.3;;;;;;;18.03;67.77637;938.3236;;;;
2023/06/16 06:10:30;;;;;;;7.2;4.9;;;;;;;18.27;65.47754;938.3312;;;;
2023/06/16 06:13:00;;;;;;;7.1;4.8;;;;;;;18.21;64.57324;938.291;;;;
2023/06/16 06:15:25;;;;;;;10;5.4;;;;;;;18.31;65.82129;938.3586;;;;
2023/06/16 06:17:51;;;;;;;6.2;4.9;;;;;;;18.78;67.22949;938.2834;;;;
2023/06/16 06:20:16;;;;;;;9;4.7;;;;;;;20.58;61.84961;938.2908;;;;
2023/06/16 06:22:46;;;;;;;8.3;4.6;;;;;;;22.57;55.56641;938.2814;;;;
2023/06/16 06:25:13;;;;;;;5.2;4;;;;;;;22.68;51.39063;938.2817;;;;
2023/06/16 06:27:36;;;;;;;7.2;4.4;;;;;;;23.07;50.56543;938.2614;;;;
2023/06/16 06:30:04;;;;;;;4.5;3.6;;;;;;;24.18;48.79492;938.2502;;;;
2023/06/16 06:32:29;;;;;;;4.2;3.8;;;;;;;24.56;47.6582;938.2311;;;;
2023/06/16 06:34:56;;;;;;;5.5;3.8;;;;;;;24.38;46.86133;938.2527;;;;
2023/06/16 06:37:26;;;;;;;5.2;3.5;;;;;;;23.19;48.5;938.2794;;;;
2023/06/16 06:39:47;;;;;;;4.2;3;;;;;;;24.44;46.05469;938.2617;;;;
2023/06/16 06:42:13;;;;;;;6.8;3.8;;;;;;;24.36;45.23438;938.2328;;;;
2023/06/16 06:44:38;;;;;;;3.8;3.1;;;;;;;23.33;45.93848;938.3425;;;;
2023/06/16 06:47:03;;;;;;;3.5;3.2;;;;;;;23.06;47.65137;938.2964;;;;
2023/06/16 06:49:29;;;;;;;4.7;3.2;;;;;;;21.4;53.23242;938.2726;;;;
2023/06/16 06:51:54;;;;;;;4.9;3.6;;;;;;;21.25;53.69434;938.2969;;;;
2023/06/16 06:54:22;;;;;;;3.9;3.6;;;;;;;21.05;54.45215;938.3368;;;;
2023/06/16 06:56:47;;;;;;;4;3.4;;;;;;;20.23;57.55078;938.3412;;;;
2023/06/16 06:59:14;;;;;;;5.5;3.5;;;;;;;20.39;55.94824;938.3474;;;;
2023/06/16 07:01:39;;;;;;;3.5;3.2;;;;;;;20.48;54.61719;938.3566;;;;
2023/06/16 07:04:09;;;;;;;4.4;3.2;;;;;;;20.5;54.75781;938.3684;;;;
2023/06/16 07:06:40;;;;;;;4.2;3.6;;;;;;;20.56;55.25781;938.4208;;;;
2023/06/16 07:09:10;;;;;;;3.2;2.9;;;;;;;20.79;53.46387;938.4094;;;;
2023/06/16 07:11:35;;;;;;;5.3;3.2;;;;;;;21.46;53.74219;938.3901;;;;
2023/06/16 07:14:05;;;;;;;3.7;3.2;;;;;;;22.12;50.10547;938.4122;;;;
2023/06/16 07:16:35;;;;;;;5.9;3.3;;;;;;;22.31;50.63184;938.4456;;;;
2023/06/16 07:19:04;;;;;;;4.8;3.2;;;;;;;22.41;48.35547;938.3851;;;;
2023/06/16 07:21:29;;;;;;;5.9;2.8;;;;;;;22.99;46.09277;938.3533;;;;
2023/06/16 07:23:55;;;;;;;4.4;2.9;;;;;;;24.02;42.06738;938.3688;;;;
2023/06/16 07:26:20;;;;;;;5.1;3;;;;;;;23.77;46.69141;938.3408;;;;
2023/06/16 07:28:49;;;;;;;3.8;2.9;;;;;;;23.47;45.87207;938.4197;;;;
2023/06/16 07:31:14;;;;;;;3.1;2.8;;;;;;;23.06;46.94531;938.4299;;;;
2023/06/16 07:33:40;;;;;;;4.3;2.9;;;;;;;22.01;46.40234;938.4583;;;;
2023/06/16 07:36:05;;;;;;;3.7;2.9;;;;;;;21.42;47.12402;938.4048;;;;
2023/06/16 07:38:34;;;;;;;3.3;3;;;;;;;21.4;50.66895;938.3804;;;;
2023/06/16 07:41:02;;;;;;;3.9;3;;;;;;;21.61;50.45898;938.3903;;;;
2023/06/16 07:43:30;;;;;;;4;3.2;;;;;;;21.73;50.4248;938.4099;;;;
2023/06/16 07:45:55;;;;;;;3.3;3;;;;;;;21.41;47.97656;938.3647;;;;
2023/06/16 07:48:22;;;;;;;4.7;3.1;;;;;;;21.92;49.77832;938.3635;;;;
2023/06/16 07:50:47;;;;;;;3.4;3.1;;;;;;;23.62;47.85254;938.3075;;;;
2023/06/16 07:53:15;;;;;;;3.7;2.8;;;;;;;25.62;39.85449;938.2676;;;;
2023/06/16 07:55:40;;;;;;;3.7;3;;;;;;;27.18;39.3291;938.2916;;;;
2023/06/16 07:58:06;;;;;;;3.2;2.9;;;;;;;26.83;38.31543;938.2654;;;;
2023/06/16 08:00:32;;;;;;;3.5;2.6;;;;;;;27.11;36.66797;938.3011;;;;
2023/06/16 08:03:01;;;;;;;4.9;3.2;;;;;;;26.18;39.30176;938.2686;;;;
2023/06/16 08:05:27;;;;;;;3.5;3.1;;;;;;;25.5;39.79688;938.2787;;;;
2023/06/16 08:07:54;;;;;;;4.2;2.7;;;;;;;24.3;41.83496;938.1932;;;;
2023/06/16 08:10:23;;;;;;;5.4;2.8;;;;;;;23.73;45.26367;938.2472;;;;
2023/06/16 08:12:53;;;;;;;3.1;2.8;;;;;;;23.61;44.85059;938.2505;;;;
2023/06/16 08:15:18;;;;;;;3.2;2.9;;;;;;;23.36;46.51953;938.3329;;;;
2023/06/16 08:17:47;;;;;;;3.4;2.7;;;;;;;22.93;47.64844;938.2996;;;;
2023/06/16 08:20:16;;;;;;;5.1;3.3;;;;;;;22.17;50.81543;938.3829;;;;
2023/06/16 08:22:41;;;;;;;3.9;3.5;;;;;;;21.51;53.11621;938.4194;;;;
2023/06/16 08:25:12;;;;;;;5.9;3.8;;;;;;;21.52;52.09961;938.3639;;;;
2023/06/16 08:27:37;;;;;;;6.8;3.5;;;;;;;21.45;51.42383;938.3427;;;;
2023/06/16 08:30:03;;;;;;;4.5;3.2;;;;;;;21.41;50.63379;938.2855;;;;
2023/06/16 08:32:30;;;;;;;4.6;3.3;;;;;;;21.01;52.81055;938.3708;;;;
2023/06/16 08:35:00;;;;;;;4.4;3.5;;;;;;;20.56;53.5752;938.3552;;;;
2023/06/16 08:37:25;;;;;;;4.1;3.5;;;;;;;20.64;52.56836;938.4559;;;;
2023/06/16 08:39:55;;;;;;;3.9;3.5;;;;;;;20.71;52.65723;938.408;;;;
2023/06/16 08:42:28;;;;;;;3.9;3.5;;;;;;;20.56;53.24805;938.4377;;;;
2023/06/16 08:44:53;;;;;;;4;3.5;;;;;;;20.41;53.83691;938.4328;;;;
2023/06/16 08:47:18;;;;;;;4.1;3.6;;;;;;;20.45;55.70996;938.3917;;;;
2023/06/16 08:49:52;;;;;;;3.6;3.3;;;;;;;20.15;55.03125;938.353;;;;
2023/06/16 08:52:16;;;;;;;4.4;3.7;;;;;;;20.1;55.04785;938.3536;;;;
2023/06/16 08:54:39;;;;;;;4.6;3.7;;;;;;;19.88;57.52832;938.338;;;;
2023/06/16 08:57:06;;;;;;;6.5;3.8;;;;;;;20.11;56.86914;938.3073;;;;
2023/06/16 08:59:30;;;;;;;7.2;4.1;;;;;;;20.21;57.49023;938.2567;;;;
2023/06/16 09:02:01;;;;;;;6;4;;;;;;;20.33;54.45801;938.2319;;;;
2023/06/16 09:04:25;;;;;;;6;3.9;;;;;;;20.46;53.90137;938.1827;;;;
2023/06/16 09:06:56;;;;;;;4;3.5;;;;;;;21.33;53.37598;938.1049;;;;
2023/06/16 09:09:18;;;;;;;6.6;4.1;;;;;;;21.93;49.54688;938.1853;;;;
2023/06/16 09:11:45;;;;;;;6.6;3.8;;;;;;;21.79;51.32227;938.2054;;;;
2023/06/16 09:14:10;;;;;;;5.8;3.5;;;;;;;22.7;50.52441;938.2524;;;;
2023/06/16 09:16:39;;;;;;;5.1;3.8;;;;;;;22.77;51.07129;938.3351;;;;
2023/06/16 09:19:05;;;;;;;4.2;3.8;;;;;;;22.84;50.15234;938.3014;;;;
2023/06/16 09:21:32;;;;;;;4.6;4.1;;;;;;;22.55;52.24316;938.158;;;;
2023/06/16 09:23:58;;;;;;;5.1;4.1;;;;;;;21.28;53.87207;938.1146;;;;
2023/06/16 09:26:30;;;;;;;5.6;3.8;;;;;;;21.66;54.97363;938.2;;;;
2023/06/16 09:28:53;;;;;;;6.3;4.1;;;;;;;21.5;53.96973;938.2073;;;;
2023/06/16 09:31:19;;;;;;;5.6;3.8;;;;;;;21.51;53.4209;938.0977;;;;
2023/06/16 09:33:46;;;;;;;4.6;4.1;;;;;;;21.21;56.89355;938.2354;;;;
2023/06/16 09:36:11;;;;;;;5.9;4.1;;;;;;;20.93;56.97461;938.1305;;;;
2023/06/16 09:38:37;;;;;;;5.7;3.9;;;;;;;21.48;56.98828;938.0848;;;;
2023/06/16 09:41:05;;;;;;;4.4;3.4;;;;;;;22.67;51.30664;938.0603;;;;
2023/06/16 09:43:30;;;;;;;6.3;3.8;;;;;;;22.49;49.90137;938.0109;;;;
2023/06/16 09:45:56;;;;;;;4.6;3.9;;;;;;;22.46;54.15723;938.0142;;;;
2023/06/16 09:48:21;;;;;;;4.7;3.6;;;;;;;21.99;54.36914;937.992;;;;
2023/06/16 09:50:46;;;;;;;4.9;3.6;;;;;;;21.8;57.16797;938.0227;;;;
2023/06/16 09:53:13;;;;;;;5.1;4;;;;;;;22;50.5957;938.1174;;;;
2023/06/16 09:55:37;;;;;;;6.1;4.1;;;;;;;21.86;49.86621;938.0872;;;;
2023/06/16 09:58:05;;;;;;;5.2;4.1;;;;;;;21.71;52.56641;938.0558;;;;
2023/06/16 10:00:30;;;;;;;4.8;4;;;;;;;21.83;51.83105;938.0722;;;;
2023/06/16 10:03:00;;;;;;;6;4.4;;;;;;;21.74;51.73828;938.0084;;;;
2023/06/16 10:05:30;;;;;;;7.5;4.2;;;;;;;21.93;51.23438;938.0086;;;;
2023/06/16 10:07:53;;;;;;;6.5;4.6;;;;;;;22.13;55.06641;937.9641;;;;
2023/06/16 10:10:19;;;;;;;5;4;;;;;;;22.2;51.39355;937.9162;;;;
2023/06/16 10:12:50;;;;;;;6.6;4.4;;;;;;;21.98;50.96875;937.9543;;;;
2023/06/16 10:15:15;;;;;;;4.9;4.4;;;;;;;21.39;51.32324;937.9902;;;;
2023/06/16 10:17:44;;;;;;;5.8;4.8;;;;;;;20.93;54.4375;938.0687;;;;
2023/06/16 10:20:10;;;;;;;8.4;4.9;;;;;;;20.14;56.40625;938.1301;;;;
2023/06/16 10:22:34;;;;;;;7.1;4.9;;;;;;;20.08;56.02539;938.1569;;;;
2023/06/16 10:25:01;;;;;;;6;4.6;;;;;;;20.17;55.55957;938.1362;;;;
2023/06/16 10:27:27;;;;;;;8.2;4.8;;;;;;;20.15;56.4082;938.1694;;;;
2023/06/16 10:29:52;;;;;;;5.3;4.7;;;;;;;19.86;58.67969;938.2377;;;;
2023/06/16 10:32:17;;;;;;;5.9;4.6;;;;;;;19.98;57.21484;938.2433;;;;
2023/06/16 10:34:46;;;;;;;6.4;4.6;;;;;;;20.1;57.30078;938.2064;;;;
2023/06/16 10:37:12;;;;;;;6.1;4.7;;;;;;;20.05;58.53125;938.2619;;;;
2023/06/16 10:39:42;;;;;;;7.6;4.8;;;;;;;20.17;58.39453;938.1689;;;;
2023/06/16 10:42:07;;;;;;;6.6;4.6;;;;;;;20.28;60.70996;938.2583;;;;
2023/06/16 10:44:36;;;;;;;5.4;4.5;;;;;;;20.45;59.0166;938.2734;;;;
2023/06/16 10:47:01;;;;;;;5.6;4.8;;;;;;;20.47;57.16113;938.2762;;;;
2023/06/16 10:49:29;;;;;;;6.7;4.8;;;;;;;20.15;58.4043;938.3603;;;;
2023/06/16 10:51:57;;;;;;;6.5;5.1;;;;;;;19.62;60.77148;938.454;;;;
2023/06/16 10:54:22;;;;;;;5.9;4.5;;;;;;;19.5;60.92871;938.5634;;;;
2023/06/16 10:56:47;;;;;;;7.2;5.7;;;;;;;19.28;60.08301;938.6256;;;;
2023/06/16 10:59:12;;;;;;;28.6;21.2;;;;;;;19.14;62.13672;938.6755;;;;
2023/06/16 11:01:43;;;;;;;17.1;11.9;;;;;;;18.67;65.47852;938.778;;;;
2023/06/16 11:04:12;;;;;;;26;16.8;;;;;;;18.23;66.15625;938.827;;;;
2023/06/16 11:06:37;;;;;;;10.9;7.1;;;;;;;17.9;69.60156;938.7471;;;;
2023/06/16 11:09:06;;;;;;;9.8;6.2;;;;;;;18.04;72.04199;938.7084;;;;
2023/06/16 11:11:31;;;;;;;10.8;6.7;;;;;;;18.22;74.24414;938.7957;;;;
2023/06/16 11:14:00;;;;;;;10.1;6.9;;;;;;;18.18;77.11816;938.813;;;;
2023/06/16 11:16:25;;;;;;;8.9;6.6;;;;;;;18.29;78.28809;938.9023;;;;
2023/06/16 11:18:52;;;;;;;8.2;6.4;;;;;;;18.61;78.6123;938.9116;;;;
2023/06/16 11:21:17;;;;;;;12.1;7.8;;;;;;;18.82;73.94824;938.9483;;;;
2023/06/16 11:23:47;;;;;;;9.5;7;;;;;;;19.3;79.03906;939.0224;;;;
2023/06/16 11:26:12;;;;;;;8;5.9;;;;;;;19.51;80.74316;939.0105;;;;
2023/06/16 11:28:40;;;;;;;8.4;6.3;;;;;;;19.89;74.74609;939.0289;;;;
2023/06/16 11:31:04;;;;;;;8.5;6.5;;;;;;;19.99;73.05859;938.9593;;;;
2023/06/16 11:33:29;;;;;;;8.8;5.8;;;;;;;19.57;65.89258;938.9689;;;;
2023/06/16 11:35:57;;;;;;;9.5;6;;;;;;;19.55;69.11816;938.9736;;;;
2023/06/16 11:38:21;;;;;;;7.5;6.2;;;;;;;19.58;70.54297;939.0204;;;;
2023/06/16 11:40:50;;;;;;;8.9;5.9;;;;;;;19.51;63.94824;938.9895;;;;
2023/06/16 11:43:16;;;;;;;6.9;5.4;;;;;;;19.35;65.88184;938.9792;;;;
2023/06/16 11:45:45;;;;;;;7;5.3;;;;;;;19.51;67.60645;939.1003;;;;
2023/06/16 11:48:11;;;;;;;8.1;5.9;;;;;;;19.83;66.16504;939.0667;;;;
2023/06/16 11:50:36;;;;;;;6.5;5.6;;;;;;;20.25;68.09473;939.0225;;;;
2023/06/16 11:53:01;;;;;;;8.1;6.2;;;;;;;20.53;64.29492;938.8925;;;;
2023/06/16 11:55:30;;;;;;;7.8;6.1;;;;;;;21.02;66.12012;938.8887;;;;
2023/06/16 11:57:59;;;;;;;8.3;6;;;;;;;21.43;64.0752;938.7817;;;;
2023/06/16 12:00:23;;;;;;;6;5;;;;;;;20.66;59.73242;938.7096;;;;
2023/06/16 12:02:55;;;;;;;7.9;5.5;;;;;;;19.88;64.16504;938.7033;;;;
2023/06/16 12:05:24;;;;;;;7.2;5.4;;;;;;;19.8;66.52051;938.7505;;;;
2023/06/16 12:07:49;;;;;;;6.7;5;;;;;;;19.72;63.85156;938.7216;;;;
2023/06/16 12:10:22;;;;;;;6.1;5.2;;;;;;;19.68;61.09375;938.6629;;;;
2023/06/16 12:12:51;;;;;;;7.6;5.4;;;;;;;19.65;59.35254;938.5958;;;;
2023/06/16 12:15:16;;;;;;;5.8;5.1;;;;;;;19.91;56.64551;938.6144;;;;
2023/06/16 12:17:41;;;;;;;7.2;5.2;;;;;;;19.34;59.20508;938.6647;;;;
2023/06/16 12:20:11;;;;;;;6.7;5.2;;;;;;;19.15;59.38965;938.6066;;;;
2023/06/16 12:22:44;;;;;;;6.9;5;;;;;;;19.45;59.13867;938.6486;;;;
2023/06/16 12:25:07;;;;;;;7;5.2;;;;;;;19.59;58.5166;938.5946;;;;
2023/06/16 12:27:33;;;;;;;7.7;4.5;;;;;;;19.58;53.58496;938.6675;;;;
2023/06/16 12:29:59;;;;;;;7.1;5.1;;;;;;;19.9;55.52441;938.6479;;;;
2023/06/16 12:32:24;;;;;;;6.5;5;;;;;;;20.21;56.67285;938.6174;;;;
2023/06/16 12:34:50;;;;;;;6.4;4.7;;;;;;;20.1;50.42578;938.6131;;;;
2023/06/16 12:37:15;;;;;;;6.9;4.9;;;;;;;20.08;54.42676;938.5708;;;;
2023/06/16 12:39:44;;;;;;;6.3;4.8;;;;;;;20.13;50.68555;938.512;;;;
2023/06/16 12:42:09;;;;;;;5.9;4.8;;;;;;;20.11;51.13867;938.5499;;;;
2023/06/16 12:44:36;;;;;;;6.4;4.9;;;;;;;20.13;52.47266;938.5112;;;;
2023/06/16 12:47:01;;;;;;;7.1;5.1;;;;;;;20.22;54.78223;938.5491;;;;
2023/06/16 12:49:27;;;;;;;6.8;4.9;;;;;;;20.4;51.06836;938.5168;;;;
2023/06/16 12:51:52;;;;;;;5.2;4.6;;;;;;;20.5;52.48145;938.5106;;;;
2023/06/16 12:54:17;;;;;;;7;4.9;;;;;;;20.6;52.71387;938.5574;;;;
2023/06/16 12:56:48;;;;;;;6;4.7;;;;;;;20.68;55.83203;938.5869;;;;
2023/06/16 12:59:16;;;;;;;6.2;5.3;;;;;;;20.53;61.58301;938.6079;;;;
2023/06/16 13:01:41;;;;;;;6.9;5;;;;;;;20.33;59.75977;938.649;;;;
2023/06/16 13:04:10;;;;;;;6.3;5.3;;;;;;;20.49;62.30371;938.6389;;;;
2023/06/16 13:06:35;;;;;;;6.4;5.2;;;;;;;20.76;56.80078;938.7901;;;;
2023/06/16 13:09:02;;;;;;;7.5;4.9;;;;;;;20.63;56.53906;938.8365;;;;
2023/06/16 13:11:27;;;;;;;5.2;4.5;;;;;;;20.49;58.55469;938.9285;;;;
2023/06/16 13:13:56;;;;;;;7.6;5.4;;;;;;;20.4;58.91602;938.9675;;;;
2023/06/16 13:16:21;;;;;;;8.3;5.4;;;;;;;20.65;59.61426;938.8984;;;;
2023/06/16 13:18:49;;;;;;;6.1;5.1;;;;;;;20.4;56.14746;938.9078;;;;
2023/06/16 13:21:14;;;;;;;7.2;5.5;;;;;;;20.4;55.3418;938.8503;;;;
2023/06/16 13:23:45;;;;;;;7;5.2;;;;;;;20.11;55.20117;938.8448;;;;
2023/06/16 13:26:09;;;;;;;8.8;4.9;;;;;;;20.06;54.79785;938.834;;;;
2023/06/16 13:28:40;;;;;;;7.4;4.5;;;;;;;20.47;53.21289;938.6976;;;;
2023/06/16 13:31:10;;;;;;;7.9;4.7;;;;;;;20.68;52.08203;938.6652;;;;
2023/06/16 13:33:41;;;;;;;7;4.8;;;;;;;20.44;51.63281;938.5972;;;;
2023/06/16 13:36:04;;;;;;;8;5;;;;;;;20.77;55.58789;938.5581;;;;
2023/06/16 13:38:29;;;;;;;6;4.7;;;;;;;20.67;51.61426;938.4439;;;;
2023/06/16 13:40:57;;;;;;;6.7;4.9;;;;;;;21.07;53.08691;938.392;;;;
2023/06/16 13:43:22;;;;;;;5.3;4.4;;;;;;;20.96;50.2666;938.3456;;;;
2023/06/16 13:45:51;;;;;;;6.5;4.7;;;;;;;20.86;49.625;938.3074;;;;
2023/06/16 13:48:19;;;;;;;6;4.6;;;;;;;20.73;50.49902;938.2881;;;;
2023/06/16 13:50:44;;;;;;;5.8;4.7;;;;;;;20.86;49.66016;938.2206;;;;
2023/06/16 13:53:13;;;;;;;7.1;4.8;;;;;;;20.66;49.61426;938.3033;;;;
2023/06/16 13:55:38;;;;;;;6.6;4.8;;;;;;;20.91;49.44238;938.2492;;;;
2023/06/16 13:58:05;;;;;;;6.6;4.9;;;;;;;21.14;49.94824;938.2247;;;;
2023/06/16 14:00:31;;;;;;;6.1;4.2;;;;;;;21.05;47.58789;938.2508;;;;
2023/06/16 14:03:01;;;;;;;6.1;4.4;;;;;;;21.08;49.41602;938.0895;;;;
2023/06/16 14:05:27;;;;;;;5.3;4.2;;;;;;;21.22;46.03809;938.197;;;;
2023/06/16 14:07:53;;;;;;;7.1;5;;;;;;;21.3;48.23535;938.0904;;;;
2023/06/16 14:10:23;;;;;;;8.2;4.6;;;;;;;21.52;48.5625;938.0659;;;;
2023/06/16 14:12:51;;;;;;;5.6;4.3;;;;;;;21.93;47.88281;938.1383;;;;
2023/06/16 14:15:17;;;;;;;6.4;4.8;;;;;;;22.34;47.28125;938.0533;;;;
2023/06/16 14:17:44;;;;;;;6.4;4.6;;;;;;;22.53;44.61426;938.0159;;;;
2023/06/16 14:20:10;;;;;;;5.7;4.7;;;;;;;22.32;43.71289;937.9821;;;;
2023/06/16 14:22:40;;;;;;;6;4.4;;;;;;;22.34;45.75488;937.9465;;;;
2023/06/16 14:25:12;;;;;;;5.7;4.4;;;;;;;22.32;46.3877;937.9283;;;;